Frem Nordica — OVIL2 — position and weather

sailwx.info

Track history (hours):
 
Tides and Currents Weather Stations Pressure Air Temp Water Temp Dewpoint Dewpoint Depression Visibility Wind Speed Wind Dir Waves Ship Positions

Frem Nordica

Last reported at 2014-Nov-01 01:33 UTC. Time now 2014-Nov-01 04:01 UTC.
Position N 56°26' E 011°26'.

Length 79 m; draft 4.4 m.

Type: Cargo ship. MMSI: 220439000.

Date/timePositionNaut miles runAvg speedWind from/ knotsBaromVisibWave heightAir tempDewpointWater temp
2014-Nov-01 01:33N 56°26' E 011°26'22 7.5
2014-Oct-31 22:33N 56°19' E 012°05'8 7.6
2014-Oct-31 21:33N 56°14' E 012°15'8 8.0
2014-Oct-31 20:33N 56°10' E 012°27'1010.2
2014-Oct-31 19:33N 56°03' E 012°39'9 9.3
2014-Oct-31 18:33N 55°54' E 012°46'9 9.3
2014-Oct-31 17:33N 55°45' E 012°42'10 9.8
2014-Oct-31 16:33N 55°35' E 012°42'8 8.3
2014-Oct-31 15:33N 55°27' E 012°43'8 7.8
2014-Oct-31 14:33N 55°19' E 012°42'7 7.3
2014-Oct-31 13:33N 55°16' E 012°53'41 7.7
2014-Oct-31 08:10N 55°14' E 014°06'12 7.0
2014-Oct-31 06:29N 55°20' E 014°24'16 7.7
2014-Oct-31 04:22N 55°30' E 014°47'7 8.1
2014-Oct-31 03:32N 55°31' E 014°59'132 7.8
2014-Oct-30 10:33N 55°40' E 018°52'75 2.5
2014-Oct-29 04:33N 55°44' E 021°04'5 5.3
2014-Oct-29 03:33N 55°44' E 020°55'6 6.2
2014-Oct-29 02:33N 55°44' E 020°44'18 6.0
2014-Oct-28 23:33N 55°38' E 020°14'13 5.8
2014-Oct-28 21:16N 55°32' E 019°53'10 6.0
2014-Oct-28 19:33N 55°27' E 019°38'14 6.2
2014-Oct-28 17:21N 55°16' E 019°24'6 8.1
2014-Oct-28 16:33N 55°10' E 019°19'10 9.2
2014-Oct-28 15:29N 55°00' E 019°13'9 9.3
2014-Oct-28 14:33N 54°53' E 019°07'9 8.9
2014-Oct-28 13:33N 54°45' E 018°59'6 6.3
2014-Oct-28 12:34N 54°39' E 018°57'8 7.7
2014-Oct-28 11:33N 54°33' E 018°49'8 8.0
2014-Oct-28 10:33N 54°27' E 018°40'1 0.8
2014-Oct-28 09:33N 54°26' E 018°39'0 0.0
2014-Oct-28 08:33N 54°26' E 018°39'0 0.0
2014-Oct-28 07:33N 54°26' E 018°39'0 0.0
2014-Oct-28 06:33N 54°26' E 018°39'0 0.0
2014-Oct-28 05:33N 54°26' E 018°39'0 0.1
2014-Oct-28 04:33N 54°26' E 018°39'3 3.1
2014-Oct-28 03:31N 54°23' E 018°40'0 0.0
2014-Oct-28 02:31N 54°23' E 018°40'0 0.0
2014-Oct-28 01:31N 54°23' E 018°40'0 0.0
2014-Oct-28 00:31N 54°23' E 018°40'0 0.0
2014-Oct-27 23:31N 54°23' E 018°40'0 0.0
2014-Oct-27 22:31N 54°23' E 018°40'0 0.0
2014-Oct-27 21:31N 54°23' E 018°40'0 0.0
2014-Oct-27 20:31N 54°23' E 018°40'0 0.0
2014-Oct-27 19:31N 54°23' E 018°40'0 0.0
2014-Oct-27 18:31N 54°23' E 018°40'0 0.0
2014-Oct-27 17:31N 54°23' E 018°40'0 0.0
2014-Oct-27 16:31N 54°23' E 018°40'0 0.0
2014-Oct-27 15:31N 54°23' E 018°40'0 0.0
2014-Oct-27 14:31N 54°23' E 018°40'0 0.0
2014-Oct-27 13:31N 54°23' E 018°40'0 0.0
2014-Oct-27 12:31N 54°23' E 018°40'0 0.0
2014-Oct-27 11:31N 54°23' E 018°40'0 0.0
2014-Oct-27 10:31N 54°23' E 018°40'0 0.0
2014-Oct-27 09:31N 54°23' E 018°40'0 0.0
2014-Oct-27 08:31N 54°23' E 018°40'0 0.0
2014-Oct-27 07:31N 54°23' E 018°40'0 0.0
2014-Oct-27 06:31N 54°23' E 018°40'0 0.0
2014-Oct-27 05:31N 54°23' E 018°40'0 0.0
2014-Oct-27 04:31N 54°23' E 018°40'0 0.0
2014-Oct-27 03:31N 54°23' E 018°40'0 0.0
2014-Oct-27 02:31N 54°23' E 018°40'0 0.0
2014-Oct-27 01:31N 54°23' E 018°40'0 0.0
2014-Oct-27 00:31N 54°23' E 018°40'0 0.0
2014-Oct-26 23:31N 54°23' E 018°40'0 0.0
2014-Oct-26 22:31N 54°23' E 018°40'0 0.0
2014-Oct-26 21:31N 54°23' E 018°40'0 0.0
2014-Oct-26 20:31N 54°23' E 018°40'0 0.0
2014-Oct-26 19:31N 54°23' E 018°40'0 0.0
2014-Oct-26 18:31N 54°23' E 018°40'0 0.0
2014-Oct-26 17:28N 54°23' E 018°40'0 0.0
2014-Oct-26 16:31N 54°23' E 018°40'0 0.0
2014-Oct-26 15:31N 54°23' E 018°40'3 2.7
2014-Oct-26 14:33N 54°26' E 018°39'1 0.8
2014-Oct-26 13:32N 54°27' E 018°39'2 2.1
2014-Oct-26 12:34N 54°28' E 018°42'8 8.2
2014-Oct-26 11:34N 54°34' E 018°51'7 7.1
2014-Oct-26 10:34N 54°41' E 018°56'8 7.8
2014-Oct-26 09:34N 54°48' E 018°49'8 7.8
2014-Oct-26 08:33N 54°53' E 018°40'8 8.4
2014-Oct-26 07:34N 54°56' E 018°26'9 8.7
2014-Oct-26 06:33N 54°55' E 018°11'183 6.7
2014-Oct-25 03:29N 55°14' E 012°54'7 5.9
2014-Oct-25 02:22N 55°17' E 012°43'5 5.6
2014-Oct-25 01:34N 55°20' E 012°39'7 7.0
2014-Oct-25 00:33N 55°27' E 012°41'8 7.7
2014-Oct-24 23:33N 55°35' E 012°42'7 7.5
2014-Oct-24 22:33N 55°42' E 012°41'7 7.3
2014-Oct-24 21:34N 55°50' E 012°40'7 7.2
2014-Oct-24 20:34N 55°57' E 012°38'7 6.9
2014-Oct-24 19:34N 56°04' E 012°38'7 7.3
2014-Oct-24 18:34N 56°08' E 012°27'8 7.9
2014-Oct-24 17:33N 56°10' E 012°14'8 8.1
2014-Oct-24 16:33N 56°07' E 012°00'12 8.1
2014-Oct-24 15:05N 55°57' E 011°50'4 5.0
2014-Oct-24 14:16N 55°57' E 011°57'2 3.2
2014-Oct-24 13:33N 55°58' E 012°01'0 0.0
2014-Oct-24 12:33N 55°58' E 012°01'0 0.0
2014-Oct-24 08:27N 55°58' E 012°01'0 0.0
2014-Oct-24 05:09N 55°58' E 012°01'0 0.0
2014-Oct-23 14:30N 55°58' E 012°01'0 0.0
2014-Oct-23 13:33N 55°58' E 012°01'0 0.0
2014-Oct-23 12:33N 55°58' E 012°01'0 0.0
2014-Oct-23 11:33N 55°58' E 012°01'0 0.0
2014-Oct-23 10:30N 55°58' E 012°01'0 0.0
2014-Oct-23 09:33N 55°58' E 012°01'0 0.0
2014-Oct-23 08:30N 55°58' E 012°01'0 0.0
2014-Oct-23 07:30N 55°58' E 012°01'0 0.1
2014-Oct-23 06:27N 55°58' E 012°01'0 0.0
2014-Oct-23 05:27N 55°58' E 012°01'0 0.0
2014-Oct-23 03:30N 55°58' E 012°01'0 0.0
2014-Oct-23 00:06N 55°58' E 012°01'0 0.0
2014-Oct-22 22:33N 55°58' E 012°01'3 3.0
2014-Oct-22 21:33N 55°57' E 011°56'  
Track history (hours):
 
Tides and Currents Weather Stations Pressure Air Temp Water Temp Dewpoint Dewpoint Depression Visibility Wind Speed Wind Dir Waves Ship Positions

Frem Nordica

Last reported at 2014-Nov-01 01:33 UTC. Time now 2014-Nov-01 04:01 UTC.
Position N 56°26' E 011°26'.

Length 79 m; draft 4.4 m.

Type: Cargo ship. MMSI: 220439000.

Date/timePositionNaut miles runAvg speedWind from/ knotsBaromVisibWave heightAir tempDewpointWater temp
2014-Nov-01 01:33N 56°26' E 011°26'22 7.5
2014-Oct-31 22:33N 56°19' E 012°05'8 7.6
2014-Oct-31 21:33N 56°14' E 012°15'8 8.0
2014-Oct-31 20:33N 56°10' E 012°27'1010.2
2014-Oct-31 19:33N 56°03' E 012°39'9 9.3
2014-Oct-31 18:33N 55°54' E 012°46'9 9.3
2014-Oct-31 17:33N 55°45' E 012°42'10 9.8
2014-Oct-31 16:33N 55°35' E 012°42'8 8.3
2014-Oct-31 15:33N 55°27' E 012°43'8 7.8
2014-Oct-31 14:33N 55°19' E 012°42'7 7.3
2014-Oct-31 13:33N 55°16' E 012°53'41 7.7
2014-Oct-31 08:10N 55°14' E 014°06'12 7.0
2014-Oct-31 06:29N 55°20' E 014°24'16 7.7
2014-Oct-31 04:22N 55°30' E 014°47'7 8.1
2014-Oct-31 03:32N 55°31' E 014°59'132 7.8
2014-Oct-30 10:33N 55°40' E 018°52'75 2.5
2014-Oct-29 04:33N 55°44' E 021°04'5 5.3
2014-Oct-29 03:33N 55°44' E 020°55'6 6.2
2014-Oct-29 02:33N 55°44' E 020°44'18 6.0
2014-Oct-28 23:33N 55°38' E 020°14'13 5.8
2014-Oct-28 21:16N 55°32' E 019°53'10 6.0
2014-Oct-28 19:33N 55°27' E 019°38'14 6.2
2014-Oct-28 17:21N 55°16' E 019°24'6 8.1
2014-Oct-28 16:33N 55°10' E 019°19'10 9.2
2014-Oct-28 15:29N 55°00' E 019°13'9 9.3
2014-Oct-28 14:33N 54°53' E 019°07'9 8.9
2014-Oct-28 13:33N 54°45' E 018°59'6 6.3
2014-Oct-28 12:34N 54°39' E 018°57'8 7.7
2014-Oct-28 11:33N 54°33' E 018°49'8 8.0
2014-Oct-28 10:33N 54°27' E 018°40'1 0.8
2014-Oct-28 09:33N 54°26' E 018°39'0 0.0
2014-Oct-28 08:33N 54°26' E 018°39'0 0.0
2014-Oct-28 07:33N 54°26' E 018°39'0 0.0
2014-Oct-28 06:33N 54°26' E 018°39'0 0.0
2014-Oct-28 05:33N 54°26' E 018°39'0 0.1
2014-Oct-28 04:33N 54°26' E 018°39'3 3.1
2014-Oct-28 03:31N 54°23' E 018°40'0 0.0
2014-Oct-28 02:31N 54°23' E 018°40'0 0.0
2014-Oct-28 01:31N 54°23' E 018°40'0 0.0
2014-Oct-28 00:31N 54°23' E 018°40'0 0.0
2014-Oct-27 23:31N 54°23' E 018°40'0 0.0
2014-Oct-27 22:31N 54°23' E 018°40'0 0.0
2014-Oct-27 21:31N 54°23' E 018°40'0 0.0
2014-Oct-27 20:31N 54°23' E 018°40'0 0.0
2014-Oct-27 19:31N 54°23' E 018°40'0 0.0
2014-Oct-27 18:31N 54°23' E 018°40'0 0.0
2014-Oct-27 17:31N 54°23' E 018°40'0 0.0
2014-Oct-27 16:31N 54°23' E 018°40'0 0.0
2014-Oct-27 15:31N 54°23' E 018°40'0 0.0
2014-Oct-27 14:31N 54°23' E 018°40'0 0.0
2014-Oct-27 13:31N 54°23' E 018°40'0 0.0
2014-Oct-27 12:31N 54°23' E 018°40'0 0.0
2014-Oct-27 11:31N 54°23' E 018°40'0 0.0
2014-Oct-27 10:31N 54°23' E 018°40'0 0.0
2014-Oct-27 09:31N 54°23' E 018°40'0 0.0
2014-Oct-27 08:31N 54°23' E 018°40'0 0.0
2014-Oct-27 07:31N 54°23' E 018°40'0 0.0
2014-Oct-27 06:31N 54°23' E 018°40'0 0.0
2014-Oct-27 05:31N 54°23' E 018°40'0 0.0
2014-Oct-27 04:31N 54°23' E 018°40'0 0.0
2014-Oct-27 03:31N 54°23' E 018°40'0 0.0
2014-Oct-27 02:31N 54°23' E 018°40'0 0.0
2014-Oct-27 01:31N 54°23' E 018°40'0 0.0
2014-Oct-27 00:31N 54°23' E 018°40'0 0.0
2014-Oct-26 23:31N 54°23' E 018°40'0 0.0
2014-Oct-26 22:31N 54°23' E 018°40'0 0.0
2014-Oct-26 21:31N 54°23' E 018°40'0 0.0
2014-Oct-26 20:31N 54°23' E 018°40'0 0.0
2014-Oct-26 19:31N 54°23' E 018°40'0 0.0
2014-Oct-26 18:31N 54°23' E 018°40'0 0.0
2014-Oct-26 17:28N 54°23' E 018°40'0 0.0
2014-Oct-26 16:31N 54°23' E 018°40'0 0.0
2014-Oct-26 15:31N 54°23' E 018°40'3 2.7
2014-Oct-26 14:33N 54°26' E 018°39'1 0.8
2014-Oct-26 13:32N 54°27' E 018°39'2 2.1
2014-Oct-26 12:34N 54°28' E 018°42'8 8.2
2014-Oct-26 11:34N 54°34' E 018°51'7 7.1
2014-Oct-26 10:34N 54°41' E 018°56'8 7.8
2014-Oct-26 09:34N 54°48' E 018°49'8 7.8
2014-Oct-26 08:33N 54°53' E 018°40'8 8.4
2014-Oct-26 07:34N 54°56' E 018°26'9 8.7
2014-Oct-26 06:33N 54°55' E 018°11'183 6.7
2014-Oct-25 03:29N 55°14' E 012°54'7 5.9
2014-Oct-25 02:22N 55°17' E 012°43'5 5.6
2014-Oct-25 01:34N 55°20' E 012°39'7 7.0
2014-Oct-25 00:33N 55°27' E 012°41'8 7.7
2014-Oct-24 23:33N 55°35' E 012°42'7 7.5
2014-Oct-24 22:33N 55°42' E 012°41'7 7.3
2014-Oct-24 21:34N 55°50' E 012°40'7 7.2
2014-Oct-24 20:34N 55°57' E 012°38'7 6.9
2014-Oct-24 19:34N 56°04' E 012°38'7 7.3
2014-Oct-24 18:34N 56°08' E 012°27'8 7.9
2014-Oct-24 17:33N 56°10' E 012°14'8 8.1
2014-Oct-24 16:33N 56°07' E 012°00'12 8.1
2014-Oct-24 15:05N 55°57' E 011°50'4 5.0
2014-Oct-24 14:16N 55°57' E 011°57'2 3.2
2014-Oct-24 13:33N 55°58' E 012°01'0 0.0
2014-Oct-24 12:33N 55°58' E 012°01'0 0.0
2014-Oct-24 08:27N 55°58' E 012°01'0 0.0
2014-Oct-24 05:09N 55°58' E 012°01'0 0.0
2014-Oct-23 14:30N 55°58' E 012°01'0 0.0
2014-Oct-23 13:33N 55°58' E 012°01'0 0.0
2014-Oct-23 12:33N 55°58' E 012°01'0 0.0
2014-Oct-23 11:33N 55°58' E 012°01'0 0.0
2014-Oct-23 10:30N 55°58' E 012°01'0 0.0
2014-Oct-23 09:33N 55°58' E 012°01'0 0.0
2014-Oct-23 08:30N 55°58' E 012°01'0 0.0
2014-Oct-23 07:30N 55°58' E 012°01'0 0.1
2014-Oct-23 06:27N 55°58' E 012°01'0 0.0
2014-Oct-23 05:27N 55°58' E 012°01'0 0.0
2014-Oct-23 03:30N 55°58' E 012°01'0 0.0
2014-Oct-23 00:06N 55°58' E 012°01'0 0.0
2014-Oct-22 22:33N 55°58' E 012°01'3 3.0
2014-Oct-22 21:33N 55°57' E 011°56'  

Dump ship's entire track history